San Antonio International Airport San Antonio US
ICAO: KSAT
IATA: SAT
Category: Large
Scheduled Services: Yes

Elevation: 809 ft
TransAlt. 18000 ft.

Airport Communications:
APP/DEP:118.05
ATIS:118.9
CLNC DEL:126.7
GND:121.9
SAN ANGELO RDO:122.2
TWR:119.8
UNICOM:122.95

KSAT Zoom In..

Runways:

(A) RW 04 length 8505 ft width 150 ft
ILS 109.70 / hdg 33

(B) RW 12L length 5519 ft width 100 ft
---- / hdg 124

(C) RW 12R length 8502 ft width 150 ft
ILS 110.90 / hdg 124

(D) RW 22 length 8505 ft width 150 ft
---- / hdg 213

(E) RW 30L length 8502 ft width 150 ft
ILS 110.90 / hdg 304

(F) RW 30R length 5519 ft width 100 ft
---- / hdg 304

Location; KSAT
Day. 27 / Time. 06.51 Zulu
* Altimeter: 29.94
* Temperature: 19° c. 66.2°f.
* Wind from: 340° Speed 04 kn.
Dewpoint: 16° c.
Visibility: 10 Statute Miles.
Clouds: Overcast 700 ft.

KSAT 270651Z 34004KT 10SM OVC007 19/16 A2994 RMK AO2 SLP123 T01940156

Going to: --> -->


Wind From 340°
Speed 04 kn.

 
 
jpsmedia worldairports.se 2020   terms of use